sensor_id;sensor_type;location;lat;lon;timestamp;pressure;altitude;pressure_sealevel;temperature;humidity
43217;BME280;60511;42.686;23.300;2022-07-05T00:00:08;94861.53;;;27.83;28.20
43217;BME280;60511;42.686;23.300;2022-07-05T00:02:08;94861.03;;;27.74;28.21
43217;BME280;60511;42.686;23.300;2022-07-05T00:04:09;94852.59;;;27.86;28.25
43217;BME280;60511;42.686;23.300;2022-07-05T00:06:09;94853.09;;;27.95;28.01
43217;BME280;60511;42.686;23.300;2022-07-05T00:08:09;94856.19;;;27.94;28.44
43217;BME280;60511;42.686;23.300;2022-07-05T00:10:10;94857.03;;;28.01;27.84
43217;BME280;60511;42.686;23.300;2022-07-05T00:12:10;94865.25;;;28.09;28.05
43217;BME280;60511;42.686;23.300;2022-07-05T00:14:13;94864.06;;;28.06;28.30
43217;BME280;60511;42.686;23.300;2022-07-05T00:16:13;94866.00;;;28.05;28.29
43217;BME280;60511;42.686;23.300;2022-07-05T00:18:13;94857.06;;;28.09;28.17
43217;BME280;60511;42.686;23.300;2022-07-05T00:20:13;94858.25;;;28.08;28.00
43217;BME280;60511;42.686;23.300;2022-07-05T00:22:14;94855.41;;;27.97;28.22
43217;BME280;60511;42.686;23.300;2022-07-05T00:24:14;94850.34;;;27.92;27.80
43217;BME280;60511;42.686;23.300;2022-07-05T00:26:14;94856.53;;;27.89;27.90
43217;BME280;60511;42.686;23.300;2022-07-05T00:28:15;94860.91;;;28.00;27.77
43217;BME280;60511;42.686;23.300;2022-07-05T00:30:15;94855.47;;;28.00;27.68
43217;BME280;60511;42.686;23.300;2022-07-05T00:32:15;94853.91;;;28.03;27.77
43217;BME280;60511;42.686;23.300;2022-07-05T00:34:16;94851.56;;;27.98;27.82
43217;BME280;60511;42.686;23.300;2022-07-05T00:36:16;94854.66;;;27.96;27.73
43217;BME280;60511;42.686;23.300;2022-07-05T00:38:16;94845.34;;;27.97;27.70
43217;BME280;60511;42.686;23.300;2022-07-05T00:40:16;94844.22;;;28.02;27.42
43217;BME280;60511;42.686;23.300;2022-07-05T00:42:17;94853.13;;;28.02;27.29
43217;BME280;60511;42.686;23.300;2022-07-05T00:44:27;94852.03;;;28.11;27.23
43217;BME280;60511;42.686;23.300;2022-07-05T00:46:27;94848.19;;;28.15;27.52
43217;BME280;60511;42.686;23.300;2022-07-05T00:48:28;94838.06;;;28.12;27.76
43217;BME280;60511;42.686;23.300;2022-07-05T00:50:28;94844.97;;;28.02;27.45
43217;BME280;60511;42.686;23.300;2022-07-05T00:52:28;94839.91;;;27.97;27.46
43217;BME280;60511;42.686;23.300;2022-07-05T00:54:29;94838.31;;;27.96;27.32
43217;BME280;60511;42.686;23.300;2022-07-05T00:56:30;94846.09;;;27.94;27.27
43217;BME280;60511;42.686;23.300;2022-07-05T00:58:30;94844.09;;;27.88;27.37
43217;BME280;60511;42.686;23.300;2022-07-05T01:00:32;94845.69;;;27.92;27.17
43217;BME280;60511;42.686;23.300;2022-07-05T01:02:33;94844.13;;;27.91;27.27
43217;BME280;60511;42.686;23.300;2022-07-05T01:04:33;94844.94;;;27.95;27.15
43217;BME280;60511;42.686;23.300;2022-07-05T01:06:34;94845.75;;;27.99;27.12
43217;BME280;60511;42.686;23.300;2022-07-05T01:08:35;94851.59;;;28.05;27.28
43217;BME280;60511;42.686;23.300;2022-07-05T01:10:36;94854.34;;;28.09;27.29
43217;BME280;60511;42.686;23.300;2022-07-05T01:12:38;94858.28;;;28.15;27.19
43217;BME280;60511;42.686;23.300;2022-07-05T01:14:40;94859.06;;;28.15;27.38
43217;BME280;60511;42.686;23.300;2022-07-05T01:16:40;94859.88;;;28.16;27.64
43217;BME280;60511;42.686;23.300;2022-07-05T01:18:41;94863.00;;;28.18;27.44
43217;BME280;60511;42.686;23.300;2022-07-05T01:20:43;94857.53;;;28.21;27.31
43217;BME280;60511;42.686;23.300;2022-07-05T01:24:53;94862.66;;;28.27;27.55
43217;BME280;60511;42.686;23.300;2022-07-05T01:26:54;94868.34;;;28.11;27.15
43217;BME280;60511;42.686;23.300;2022-07-05T01:28:56;94864.56;;;28.22;27.76
43217;BME280;60511;42.686;23.300;2022-07-05T01:30:56;94873.53;;;28.27;27.85
43217;BME280;60511;42.686;23.300;2022-07-05T01:32:56;94874.75;;;28.33;27.45
43217;BME280;60511;42.686;23.300;2022-07-05T01:34:57;94862.25;;;28.24;27.41
43217;BME280;60511;42.686;23.300;2022-07-05T01:36:57;94866.13;;;28.23;27.74
43217;BME280;60511;42.686;23.300;2022-07-05T01:38:57;94862.63;;;28.23;27.64
43217;BME280;60511;42.686;23.300;2022-07-05T01:40:58;94859.47;;;28.14;27.75
43217;BME280;60511;42.686;23.300;2022-07-05T01:43:00;94851.66;;;28.12;27.88
43217;BME280;60511;42.686;23.300;2022-07-05T01:45:00;94844.28;;;28.13;27.20
43217;BME280;60511;42.686;23.300;2022-07-05T01:47:04;94852.38;;;28.02;27.42
43217;BME280;60511;42.686;23.300;2022-07-05T01:49:09;94846.53;;;28.00;27.46
43217;BME280;60511;42.686;23.300;2022-07-05T01:51:22;94854.91;;;27.84;27.48
43217;BME280;60511;42.686;23.300;2022-07-05T01:53:27;94855.19;;;27.72;27.88
43217;BME280;60511;42.686;23.300;2022-07-05T01:55:28;94853.66;;;27.71;27.97
43217;BME280;60511;42.686;23.300;2022-07-05T01:57:28;94850.50;;;27.69;27.76
43217;BME280;60511;42.686;23.300;2022-07-05T01:59:28;94853.66;;;27.71;28.01
43217;BME280;60511;42.686;23.300;2022-07-05T02:01:40;94854.88;;;27.77;27.96
43217;BME280;60511;42.686;23.300;2022-07-05T02:03:40;94858.75;;;27.79;28.33
43217;BME280;60511;42.686;23.300;2022-07-05T02:05:41;94852.19;;;27.84;28.45
43217;BME280;60511;42.686;23.300;2022-07-05T02:07:48;94849.31;;;27.66;29.11
43217;BME280;60511;42.686;23.300;2022-07-05T02:09:48;94842.25;;;27.58;29.33
43217;BME280;60511;42.686;23.300;2022-07-05T02:11:48;94844.59;;;27.59;29.47
43217;BME280;60511;42.686;23.300;2022-07-05T02:13:48;94852.06;;;27.70;29.42
43217;BME280;60511;42.686;23.300;2022-07-05T02:15:49;94852.13;;;27.77;28.96
43217;BME280;60511;42.686;23.300;2022-07-05T02:17:49;94863.84;;;27.84;28.86
43217;BME280;60511;42.686;23.300;2022-07-05T02:19:49;94857.31;;;27.89;29.04
43217;BME280;60511;42.686;23.300;2022-07-05T02:21:49;94854.25;;;27.94;28.92
43217;BME280;60511;42.686;23.300;2022-07-05T02:23:50;94851.94;;;27.96;28.78
43217;BME280;60511;42.686;23.300;2022-07-05T02:25:50;94854.25;;;27.94;29.15
43217;BME280;60511;42.686;23.300;2022-07-05T02:27:52;94856.22;;;28.01;28.98
43217;BME280;60511;42.686;23.300;2022-07-05T02:29:52;94862.00;;;27.92;29.03
43217;BME280;60511;42.686;23.300;2022-07-05T02:31:52;94866.69;;;27.95;29.26
43217;BME280;60511;42.686;23.300;2022-07-05T02:33:53;94869.03;;;27.97;29.19
43217;BME280;60511;42.686;23.300;2022-07-05T02:35:54;94868.31;;;28.03;28.99
43217;BME280;60511;42.686;23.300;2022-07-05T02:37:54;94869.50;;;28.06;29.15
43217;BME280;60511;42.686;23.300;2022-07-05T02:39:55;94873.00;;;28.07;29.33
43217;BME280;60511;42.686;23.300;2022-07-05T02:41:55;94871.06;;;28.07;29.30
43217;BME280;60511;42.686;23.300;2022-07-05T02:43:55;94876.09;;;28.05;29.52
43217;BME280;60511;42.686;23.300;2022-07-05T02:45:56;94879.56;;;28.02;29.44
43217;BME280;60511;42.686;23.300;2022-07-05T02:47:57;94872.22;;;28.06;29.66
43217;BME280;60511;42.686;23.300;2022-07-05T02:49:58;94877.38;;;27.77;30.18
43217;BME280;60511;42.686;23.300;2022-07-05T02:51:58;94880.59;;;27.87;30.62
43217;BME280;60511;42.686;23.300;2022-07-05T02:53:58;94872.81;;;27.85;30.91
43217;BME280;60511;42.686;23.300;2022-07-05T02:55:58;94887.34;;;28.00;30.39
43217;BME280;60511;42.686;23.300;2022-07-05T02:57:59;94880.16;;;27.84;31.08
43217;BME280;60511;42.686;23.300;2022-07-05T02:59:59;94885.22;;;27.11;32.31
43217;BME280;60511;42.686;23.300;2022-07-05T03:01:59;94886.88;;;26.59;33.49
43217;BME280;60511;42.686;23.300;2022-07-05T03:03:59;94889.97;;;26.57;33.57
43217;BME280;60511;42.686;23.300;2022-07-05T03:06:00;94888.06;;;27.22;32.59
43217;BME280;60511;42.686;23.300;2022-07-05T03:08:00;94883.06;;;26.94;33.03
43217;BME280;60511;42.686;23.300;2022-07-05T03:10:00;94889.56;;;26.85;33.17
43217;BME280;60511;42.686;23.300;2022-07-05T03:12:01;94895.44;;;26.11;34.69
43217;BME280;60511;42.686;23.300;2022-07-05T03:14:01;94890.72;;;26.58;33.90
43217;BME280;60511;42.686;23.300;2022-07-05T03:16:02;94890.34;;;26.86;33.42
43217;BME280;60511;42.686;23.300;2022-07-05T03:18:02;94894.09;;;25.78;34.71
43217;BME280;60511;42.686;23.300;2022-07-05T03:20:03;94890.59;;;25.78;34.78
43217;BME280;60511;42.686;23.300;2022-07-05T03:22:03;94891.78;;;25.77;34.65
43217;BME280;60511;42.686;23.300;2022-07-05T03:24:03;94892.81;;;25.72;34.90
43217;BME280;60511;42.686;23.300;2022-07-05T03:26:04;94886.84;;;25.20;35.66
43217;BME280;60511;42.686;23.300;2022-07-05T03:28:04;94886.22;;;25.08;36.24
43217;BME280;60511;42.686;23.300;2022-07-05T03:30:04;94880.59;;;25.36;35.75
43217;BME280;60511;42.686;23.300;2022-07-05T03:32:05;94885.34;;;25.23;35.72
43217;BME280;60511;42.686;23.300;2022-07-05T03:34:05;94889.19;;;24.83;36.48
43217;BME280;60511;42.686;23.300;2022-07-05T03:36:06;94884.91;;;24.62;36.93
43217;BME280;60511;42.686;23.300;2022-07-05T03:38:06;94886.53;;;24.67;36.56
43217;BME280;60511;42.686;23.300;2022-07-05T03:40:07;94885.75;;;24.86;36.06
43217;BME280;60511;42.686;23.300;2022-07-05T03:42:07;94880.00;;;25.46;35.17
43217;BME280;60511;42.686;23.300;2022-07-05T03:44:07;94881.09;;;25.64;34.69
43217;BME280;60511;42.686;23.300;2022-07-05T03:46:08;94873.84;;;25.49;34.78
43217;BME280;60511;42.686;23.300;2022-07-05T03:48:08;94876.09;;;24.85;36.16
43217;BME280;60511;42.686;23.300;2022-07-05T03:50:08;94876.22;;;24.73;36.70
43217;BME280;60511;42.686;23.300;2022-07-05T03:52:08;94880.72;;;24.33;36.93
43217;BME280;60511;42.686;23.300;2022-07-05T03:54:09;94872.28;;;24.70;36.18
43217;BME280;60511;42.686;23.300;2022-07-05T03:56:09;94874.47;;;24.29;37.07
43217;BME280;60511;42.686;23.300;2022-07-05T03:58:09;94869.31;;;24.75;36.80
43217;BME280;60511;42.686;23.300;2022-07-05T04:00:10;94871.00;;;24.64;37.25
43217;BME280;60511;42.686;23.300;2022-07-05T04:02:10;94878.19;;;24.56;37.50
43217;BME280;60511;42.686;23.300;2022-07-05T04:04:11;94872.38;;;24.74;37.01
43217;BME280;60511;42.686;23.300;2022-07-05T04:06:12;94878.53;;;24.39;37.72
43217;BME280;60511;42.686;23.300;2022-07-05T04:08:13;94868.94;;;24.41;37.74
43217;BME280;60511;42.686;23.300;2022-07-05T04:10:13;94875.38;;;24.69;37.10
43217;BME280;60511;42.686;23.300;2022-07-05T04:12:13;94888.59;;;24.38;37.78
43217;BME280;60511;42.686;23.300;2022-07-05T04:14:13;94876.03;;;24.30;38.29
43217;BME280;60511;42.686;23.300;2022-07-05T04:16:14;94876.69;;;24.43;38.41
43217;BME280;60511;42.686;23.300;2022-07-05T04:18:14;94876.91;;;24.50;38.43
43217;BME280;60511;42.686;23.300;2022-07-05T04:20:14;94885.25;;;24.61;38.49
43217;BME280;60511;42.686;23.300;2022-07-05T04:22:15;94883.81;;;24.32;38.67
43217;BME280;60511;42.686;23.300;2022-07-05T04:24:15;94882.53;;;24.45;38.54
43217;BME280;60511;42.686;23.300;2022-07-05T04:26:15;94878.41;;;24.16;38.85
43217;BME280;60511;42.686;23.300;2022-07-05T04:28:16;94881.53;;;24.34;38.69
43217;BME280;60511;42.686;23.300;2022-07-05T04:30:16;94884.03;;;24.42;38.65
43217;BME280;60511;42.686;23.300;2022-07-05T04:32:17;94876.50;;;24.87;37.80
43217;BME280;60511;42.686;23.300;2022-07-05T04:34:17;94872.09;;;24.79;37.79
43217;BME280;60511;42.686;23.300;2022-07-05T04:36:18;94876.66;;;24.94;37.35
43217;BME280;60511;42.686;23.300;2022-07-05T04:38:18;94875.00;;;24.70;37.82
43217;BME280;60511;42.686;23.300;2022-07-05T04:40:18;94877.75;;;24.54;38.21
43217;BME280;60511;42.686;23.300;2022-07-05T04:42:19;94872.56;;;24.65;38.21
43217;BME280;60511;42.686;23.300;2022-07-05T04:44:20;94873.81;;;24.87;37.54
43217;BME280;60511;42.686;23.300;2022-07-05T04:46:20;94877.63;;;24.66;38.23
43217;BME280;60511;42.686;23.300;2022-07-05T04:48:21;94872.66;;;24.69;38.32
43217;BME280;60511;42.686;23.300;2022-07-05T04:50:22;94872.53;;;24.81;37.79
43217;BME280;60511;42.686;23.300;2022-07-05T04:52:22;94879.06;;;24.60;38.38
43217;BME280;60511;42.686;23.300;2022-07-05T04:54:23;94881.47;;;24.65;38.16
43217;BME280;60511;42.686;23.300;2022-07-05T04:56:23;94885.16;;;24.41;38.33
43217;BME280;60511;42.686;23.300;2022-07-05T04:58:23;94878.19;;;24.56;38.14
43217;BME280;60511;42.686;23.300;2022-07-05T05:00:24;94880.66;;;24.81;37.55
43217;BME280;60511;42.686;23.300;2022-07-05T05:02:24;94872.41;;;24.58;38.06
43217;BME280;60511;42.686;23.300;2022-07-05T05:04:24;94880.22;;;25.18;36.97
43217;BME280;60511;42.686;23.300;2022-07-05T05:06:24;94884.81;;;24.59;37.45
43217;BME280;60511;42.686;23.300;2022-07-05T05:08:25;94895.03;;;24.50;37.51
43217;BME280;60511;42.686;23.300;2022-07-05T05:10:25;94894.53;;;24.28;37.84
43217;BME280;60511;42.686;23.300;2022-07-05T05:12:25;94892.34;;;24.34;37.79
43217;BME280;60511;42.686;23.300;2022-07-05T05:14:26;94891.81;;;24.44;37.42
43217;BME280;60511;42.686;23.300;2022-07-05T05:16:26;94893.28;;;24.57;37.20
43217;BME280;60511;42.686;23.300;2022-07-05T05:18:26;94889.91;;;24.13;37.95
43217;BME280;60511;42.686;23.300;2022-07-05T05:20:27;94892.81;;;24.20;37.78
43217;BME280;60511;42.686;23.300;2022-07-05T05:22:27;94895.50;;;24.20;38.02
43217;BME280;60511;42.686;23.300;2022-07-05T05:24:27;94890.09;;;24.36;38.06
43217;BME280;60511;42.686;23.300;2022-07-05T05:26:28;94888.78;;;24.30;38.56
43217;BME280;60511;42.686;23.300;2022-07-05T05:28:28;94889.13;;;24.79;37.44
43217;BME280;60511;42.686;23.300;2022-07-05T05:30:28;94886.75;;;24.78;37.37
43217;BME280;60511;42.686;23.300;2022-07-05T05:32:28;94889.06;;;24.95;37.31
43217;BME280;60511;42.686;23.300;2022-07-05T05:34:29;94889.31;;;24.71;37.61
43217;BME280;60511;42.686;23.300;2022-07-05T05:36:29;94885.06;;;24.54;37.47
43217;BME280;60511;42.686;23.300;2022-07-05T05:38:29;94881.06;;;24.47;37.59
43217;BME280;60511;42.686;23.300;2022-07-05T05:40:30;94880.47;;;24.74;37.23
43217;BME280;60511;42.686;23.300;2022-07-05T05:42:30;94883.97;;;24.74;37.46
43217;BME280;60511;42.686;23.300;2022-07-05T05:44:30;94881.25;;;24.74;37.58
43217;BME280;60511;42.686;23.300;2022-07-05T05:46:31;94891.06;;;24.27;38.52
43217;BME280;60511;42.686;23.300;2022-07-05T05:48:31;94888.50;;;24.35;38.28
43217;BME280;60511;42.686;23.300;2022-07-05T05:52:31;94885.28;;;25.00;37.08
43217;BME280;60511;42.686;23.300;2022-07-05T05:54:32;94889.50;;;24.97;37.03
43217;BME280;60511;42.686;23.300;2022-07-05T05:56:32;94880.25;;;24.63;37.62
43217;BME280;60511;42.686;23.300;2022-07-05T05:58:32;94888.25;;;25.14;36.63
43217;BME280;60511;42.686;23.300;2022-07-05T06:00:32;94890.94;;;25.30;36.27
43217;BME280;60511;42.686;23.300;2022-07-05T06:02:33;94902.03;;;25.25;36.16
43217;BME280;60511;42.686;23.300;2022-07-05T06:04:33;94901.88;;;24.98;36.51
43217;BME280;60511;42.686;23.300;2022-07-05T06:06:34;94894.19;;;25.20;36.07
43217;BME280;60511;42.686;23.300;2022-07-05T06:08:34;94896.00;;;25.32;35.88
43217;BME280;60511;42.686;23.300;2022-07-05T06:10:35;94892.00;;;25.25;35.89
43217;BME280;60511;42.686;23.300;2022-07-05T06:12:38;94893.56;;;25.26;35.64
43217;BME280;60511;42.686;23.300;2022-07-05T06:14:38;94904.69;;;25.21;36.07
43217;BME280;60511;42.686;23.300;2022-07-05T06:16:39;94900.00;;;24.47;36.49
43217;BME280;60511;42.686;23.300;2022-07-05T06:18:39;94900.72;;;24.29;37.32
43217;BME280;60511;42.686;23.300;2022-07-05T06:20:39;94900.03;;;24.83;36.55
43217;BME280;60511;42.686;23.300;2022-07-05T06:22:40;94895.13;;;25.70;34.97
43217;BME280;60511;42.686;23.300;2022-07-05T06:24:40;94899.69;;;25.43;34.66
43217;BME280;60511;42.686;23.300;2022-07-05T06:26:41;94898.16;;;25.06;35.17
43217;BME280;60511;42.686;23.300;2022-07-05T06:28:41;94904.06;;;25.71;34.33
43217;BME280;60511;42.686;23.300;2022-07-05T06:30:41;94908.88;;;26.27;33.97
43217;BME280;60511;42.686;23.300;2022-07-05T06:32:42;94899.72;;;25.89;34.24
43217;BME280;60511;42.686;23.300;2022-07-05T06:34:43;94899.31;;;25.87;34.19
43217;BME280;60511;42.686;23.300;2022-07-05T06:36:43;94899.91;;;25.77;34.14
43217;BME280;60511;42.686;23.300;2022-07-05T06:38:43;94895.25;;;25.54;34.27
43217;BME280;60511;42.686;23.300;2022-07-05T06:40:43;94894.19;;;25.39;34.69
43217;BME280;60511;42.686;23.300;2022-07-05T06:42:44;94894.97;;;25.01;35.72
43217;BME280;60511;42.686;23.300;2022-07-05T06:44:44;94901.84;;;25.34;35.14
43217;BME280;60511;42.686;23.300;2022-07-05T06:46:44;94898.31;;;25.33;35.05
43217;BME280;60511;42.686;23.300;2022-07-05T06:48:45;94893.75;;;25.37;35.23
43217;BME280;60511;42.686;23.300;2022-07-05T06:50:45;94892.91;;;25.33;35.24
43217;BME280;60511;42.686;23.300;2022-07-05T06:52:45;94895.88;;;25.09;35.88
43217;BME280;60511;42.686;23.300;2022-07-05T06:54:45;94884.84;;;25.37;35.36
43217;BME280;60511;42.686;23.300;2022-07-05T06:56:46;94885.00;;;25.67;34.82
43217;BME280;60511;42.686;23.300;2022-07-05T06:58:47;94880.16;;;25.34;35.49
43217;BME280;60511;42.686;23.300;2022-07-05T07:00:47;94885.34;;;25.03;35.77
43217;BME280;60511;42.686;23.300;2022-07-05T07:02:47;94876.50;;;25.06;35.97
43217;BME280;60511;42.686;23.300;2022-07-05T07:04:48;94871.63;;;25.32;35.19
43217;BME280;60511;42.686;23.300;2022-07-05T07:06:48;94872.88;;;26.03;34.37
43217;BME280;60511;42.686;23.300;2022-07-05T07:08:49;94871.81;;;26.12;34.16
43217;BME280;60511;42.686;23.300;2022-07-05T07:11:08;94876.28;;;25.77;34.63
43217;BME280;60511;42.686;23.300;2022-07-05T07:13:08;94870.09;;;26.00;34.66
43217;BME280;60511;42.686;23.300;2022-07-05T07:15:10;94882.06;;;25.99;34.51
43217;BME280;60511;42.686;23.300;2022-07-05T07:17:10;94882.53;;;25.81;34.81
43217;BME280;60511;42.686;23.300;2022-07-05T07:19:11;94885.97;;;25.55;35.04
43217;BME280;60511;42.686;23.300;2022-07-05T07:21:12;94892.63;;;25.81;34.40
43217;BME280;60511;42.686;23.300;2022-07-05T07:23:12;94882.16;;;26.29;33.82
43217;BME280;60511;42.686;23.300;2022-07-05T07:25:13;94882.94;;;26.56;33.65
43217;BME280;60511;42.686;23.300;2022-07-05T07:27:13;94886.09;;;26.09;34.07
43217;BME280;60511;42.686;23.300;2022-07-05T07:29:13;94890.13;;;25.72;34.52
43217;BME280;60511;42.686;23.300;2022-07-05T07:31:13;94885.63;;;26.03;34.33
43217;BME280;60511;42.686;23.300;2022-07-05T07:33:14;94881.44;;;26.32;33.84
43217;BME280;60511;42.686;23.300;2022-07-05T07:35:14;94868.84;;;26.47;33.51
43217;BME280;60511;42.686;23.300;2022-07-05T07:37:14;94885.38;;;26.61;33.29
43217;BME280;60511;42.686;23.300;2022-07-05T07:39:15;94871.25;;;26.79;33.20
43217;BME280;60511;42.686;23.300;2022-07-05T07:41:15;94869.59;;;26.71;33.06
43217;BME280;60511;42.686;23.300;2022-07-05T07:43:15;94870.31;;;26.68;33.23
43217;BME280;60511;42.686;23.300;2022-07-05T07:45:16;94869.25;;;26.76;33.40
43217;BME280;60511;42.686;23.300;2022-07-05T07:47:18;94869.06;;;26.92;32.97
43217;BME280;60511;42.686;23.300;2022-07-05T07:49:18;94875.28;;;26.92;33.02
43217;BME280;60511;42.686;23.300;2022-07-05T07:51:18;94867.44;;;26.83;32.92
43217;BME280;60511;42.686;23.300;2022-07-05T07:53:21;94866.56;;;27.10;32.77
43217;BME280;60511;42.686;23.300;2022-07-05T07:55:21;94874.56;;;27.29;32.43
43217;BME280;60511;42.686;23.300;2022-07-05T07:57:23;94874.09;;;27.57;32.12
43217;BME280;60511;42.686;23.300;2022-07-05T07:59:23;94873.03;;;27.69;31.94
43217;BME280;60511;42.686;23.300;2022-07-05T08:01:23;94869.25;;;27.40;32.58
43217;BME280;60511;42.686;23.300;2022-07-05T08:03:25;94868.25;;;27.55;32.14
43217;BME280;60511;42.686;23.300;2022-07-05T08:05:26;94874.41;;;27.49;32.30
43217;BME280;60511;42.686;23.300;2022-07-05T08:07:27;94868.72;;;27.64;32.03
43217;BME280;60511;42.686;23.300;2022-07-05T08:09:30;94871.22;;;27.84;31.85
43217;BME280;60511;42.686;23.300;2022-07-05T08:11:31;94873.19;;;27.83;31.77
43217;BME280;60511;42.686;23.300;2022-07-05T08:13:31;94867.06;;;27.94;31.76
43217;BME280;60511;42.686;23.300;2022-07-05T08:15:31;94865.09;;;27.87;31.89
43217;BME280;60511;42.686;23.300;2022-07-05T08:17:31;94865.41;;;27.85;32.07
43217;BME280;60511;42.686;23.300;2022-07-05T08:19:33;94858.63;;;28.06;31.94
43217;BME280;60511;42.686;23.300;2022-07-05T08:21:51;94860.91;;;28.00;31.87
43217;BME280;60511;42.686;23.300;2022-07-05T08:23:52;94860.50;;;27.98;32.02
43217;BME280;60511;42.686;23.300;2022-07-05T08:25:52;94866.16;;;28.27;31.52
43217;BME280;60511;42.686;23.300;2022-07-05T08:27:52;94856.13;;;28.42;31.41
43217;BME280;60511;42.686;23.300;2022-07-05T08:29:52;94856.88;;;28.35;31.50
43217;BME280;60511;42.686;23.300;2022-07-05T08:31:53;94856.41;;;28.22;31.41
43217;BME280;60511;42.686;23.300;2022-07-05T08:33:53;94854.41;;;28.19;31.86
43217;BME280;60511;42.686;23.300;2022-07-05T08:35:53;94850.63;;;28.31;31.59
43217;BME280;60511;42.686;23.300;2022-07-05T08:37:54;94853.41;;;28.38;31.91
43217;BME280;60511;42.686;23.300;2022-07-05T08:39:54;94850.78;;;28.56;31.56
43217;BME280;60511;42.686;23.300;2022-07-05T08:41:54;94847.75;;;28.65;31.46
43217;BME280;60511;42.686;23.300;2022-07-05T08:43:57;94840.78;;;28.78;30.92
43217;BME280;60511;42.686;23.300;2022-07-05T08:45:57;94845.00;;;28.69;30.95
43217;BME280;60511;42.686;23.300;2022-07-05T08:47:59;94842.28;;;28.69;30.60
43217;BME280;60511;42.686;23.300;2022-07-05T08:50:00;94840.38;;;28.73;30.84
43217;BME280;60511;42.686;23.300;2022-07-05T08:52:02;94841.19;;;28.80;30.72
43217;BME280;60511;42.686;23.300;2022-07-05T08:54:04;94836.59;;;28.95;30.64
43217;BME280;60511;42.686;23.300;2022-07-05T08:56:05;94836.50;;;28.74;30.58
43217;BME280;60511;42.686;23.300;2022-07-05T08:58:07;94828.38;;;28.84;30.60
43217;BME280;60511;42.686;23.300;2022-07-05T09:00:07;94831.16;;;29.02;29.83
43217;BME280;60511;42.686;23.300;2022-07-05T09:02:12;94823.72;;;28.92;30.16
43217;BME280;60511;42.686;23.300;2022-07-05T09:04:13;94828.88;;;29.15;29.38
43217;BME280;60511;42.686;23.300;2022-07-05T09:06:17;94822.25;;;29.13;29.53
43217;BME280;60511;42.686;23.300;2022-07-05T09:08:17;94825.81;;;29.24;29.08
43217;BME280;60511;42.686;23.300;2022-07-05T09:10:17;94820.31;;;29.13;29.40
43217;BME280;60511;42.686;23.300;2022-07-05T09:12:20;94823.44;;;29.19;29.47
43217;BME280;60511;42.686;23.300;2022-07-05T09:14:21;94817.59;;;29.13;29.55
43217;BME280;60511;42.686;23.300;2022-07-05T09:16:22;94816.47;;;29.18;29.45
43217;BME280;60511;42.686;23.300;2022-07-05T09:20:43;94805.06;;;29.05;30.16
43217;BME280;60511;42.686;23.300;2022-07-05T09:22:51;94805.56;;;29.25;30.20
43217;BME280;60511;42.686;23.300;2022-07-05T09:24:54;94806.72;;;29.24;30.01
43217;BME280;60511;42.686;23.300;2022-07-05T09:26:55;94795.47;;;29.58;28.89
43217;BME280;60511;42.686;23.300;2022-07-05T09:29:03;94801.34;;;29.85;28.40
43217;BME280;60511;42.686;23.300;2022-07-05T09:31:03;94797.06;;;29.84;28.78
43217;BME280;60511;42.686;23.300;2022-07-05T09:33:08;94794.72;;;29.72;28.85
43217;BME280;60511;42.686;23.300;2022-07-05T09:35:19;94809.47;;;29.35;29.96
43217;BME280;60511;42.686;23.300;2022-07-05T09:37:19;94793.09;;;29.42;29.61
43217;BME280;60511;42.686;23.300;2022-07-05T09:41:29;94797.00;;;29.30;29.75
43217;BME280;60511;42.686;23.300;2022-07-05T09:43:29;94787.28;;;29.33;29.94
43217;BME280;60511;42.686;23.300;2022-07-05T09:45:30;94786.88;;;29.34;29.86
43217;BME280;60511;42.686;23.300;2022-07-05T09:47:30;94786.47;;;29.29;30.40
43217;BME280;60511;42.686;23.300;2022-07-05T09:49:31;94784.13;;;29.20;30.54
43217;BME280;60511;42.686;23.300;2022-07-05T09:51:46;94781.03;;;29.32;30.48
43217;BME280;60511;42.686;23.300;2022-07-05T09:53:47;94781.44;;;29.31;30.30
43217;BME280;60511;42.686;23.300;2022-07-05T09:56:03;94775.19;;;29.30;30.61
43217;BME280;60511;42.686;23.300;2022-07-05T09:58:03;94783.38;;;29.37;30.21
43217;BME280;60511;42.686;23.300;2022-07-05T10:00:05;94775.22;;;29.41;30.16
43217;BME280;60511;42.686;23.300;2022-07-05T10:02:06;94771.69;;;29.33;30.50
43217;BME280;60511;42.686;23.300;2022-07-05T10:04:07;94768.19;;;29.29;30.43
43217;BME280;60511;42.686;23.300;2022-07-05T10:06:11;94770.13;;;29.39;30.83
43217;BME280;60511;42.686;23.300;2022-07-05T10:08:12;94770.53;;;29.49;30.69
43217;BME280;60511;42.686;23.300;2022-07-05T10:10:26;94759.63;;;29.52;30.68
43217;BME280;60511;42.686;23.300;2022-07-05T10:12:26;94761.94;;;29.36;30.87
43217;BME280;60511;42.686;23.300;2022-07-05T10:14:27;94768.19;;;29.29;31.15
43217;BME280;60511;42.686;23.300;2022-07-05T10:16:27;94758.06;;;29.33;31.20
43217;BME280;60511;42.686;23.300;2022-07-05T10:18:28;94759.63;;;29.41;31.10
43217;BME280;60511;42.686;23.300;2022-07-05T10:22:40;94762.34;;;29.56;30.90
43217;BME280;60511;42.686;23.300;2022-07-05T10:24:41;94751.44;;;29.52;30.63
43217;BME280;60511;42.686;23.300;2022-07-05T10:26:42;94755.72;;;29.39;31.12
43217;BME280;60511;42.686;23.300;2022-07-05T10:28:49;94742.09;;;29.53;30.80
43217;BME280;60511;42.686;23.300;2022-07-05T10:30:50;94741.69;;;29.58;31.01
43217;BME280;60511;42.686;23.300;2022-07-05T10:32:50;94742.09;;;29.57;30.99
43217;BME280;60511;42.686;23.300;2022-07-05T10:34:51;94744.81;;;29.35;30.87
43217;BME280;60511;42.686;23.300;2022-07-05T10:36:51;94735.47;;;29.33;30.78
43217;BME280;60511;42.686;23.300;2022-07-05T10:38:51;94738.56;;;29.42;30.75
43217;BME280;60511;42.686;23.300;2022-07-05T10:40:53;94736.66;;;29.42;30.96
43217;BME280;60511;42.686;23.300;2022-07-05T10:42:55;94737.81;;;29.59;30.52